createdAt,value
2022-08-21T00:00:44.219Z,14.85
2022-08-21T00:03:12.086Z,14.85
2022-08-21T00:05:46.024Z,14.82
2022-08-21T00:08:12.919Z,14.80
2022-08-21T00:10:42.256Z,14.80
2022-08-21T00:13:08.821Z,14.77
2022-08-21T00:15:38.265Z,14.70
2022-08-21T00:18:06.384Z,14.68
2022-08-21T00:20:34.217Z,14.64
2022-08-21T00:23:01.109Z,14.65
2022-08-21T00:25:28.481Z,14.65
2022-08-21T00:27:55.636Z,14.56
2022-08-21T00:30:24.300Z,14.51
2022-08-21T00:32:52.487Z,14.47
2022-08-21T00:35:27.498Z,14.48
2022-08-21T00:37:53.911Z,14.55
2022-08-21T00:40:25.310Z,14.57
2022-08-21T00:42:53.784Z,14.59
2022-08-21T00:45:22.140Z,14.59
2022-08-21T00:47:48.847Z,14.60
2022-08-21T00:50:22.089Z,14.56
2022-08-21T00:52:52.188Z,14.49
2022-08-21T00:55:22.240Z,14.46
2022-08-21T00:57:53.077Z,14.42
2022-08-21T01:00:28.863Z,14.38
2022-08-21T01:02:57.702Z,14.36
2022-08-21T01:05:25.317Z,14.37
2022-08-21T01:07:52.075Z,14.33
2022-08-21T01:10:23.967Z,14.29
2022-08-21T01:12:54.159Z,14.21
2022-08-21T01:15:23.609Z,14.18
2022-08-21T01:17:50.567Z,14.14
2022-08-21T01:20:17.640Z,14.07
2022-08-21T01:22:44.142Z,14.02
2022-08-21T01:25:12.171Z,14.04
2022-08-21T01:27:39.660Z,14.05
2022-08-21T01:30:14.223Z,14.04
2022-08-21T01:32:40.912Z,14.06
2022-08-21T01:35:08.924Z,14.08
2022-08-21T01:37:36.500Z,14.02
2022-08-21T01:40:05.464Z,13.94
2022-08-21T01:42:32.109Z,13.92
2022-08-21T01:44:58.739Z,13.94
2022-08-21T01:47:25.276Z,13.92
2022-08-21T01:49:52.153Z,13.91
2022-08-21T01:52:19.329Z,13.84
2022-08-21T01:54:46.319Z,13.82
2022-08-21T01:57:22.015Z,13.80
2022-08-21T01:59:49.912Z,13.77
2022-08-21T02:02:16.379Z,13.73
2022-08-21T02:04:42.946Z,13.73
2022-08-21T02:07:12.316Z,13.72
2022-08-21T02:09:40.182Z,13.74
2022-08-21T02:12:06.916Z,13.79
2022-08-21T02:14:33.307Z,13.79
2022-08-21T02:17:09.513Z,13.72
2022-08-21T02:19:39.985Z,13.69
2022-08-21T02:22:08.735Z,13.67
2022-08-21T02:24:35.131Z,13.61
2022-08-21T02:27:05.135Z,13.58
2022-08-21T02:29:31.888Z,13.50
2022-08-21T02:31:58.748Z,13.46
2022-08-21T02:34:29.370Z,13.47
2022-08-21T02:36:59.522Z,13.47
2022-08-21T02:39:27.365Z,13.43
2022-08-21T02:41:54.511Z,13.41
2022-08-21T02:44:20.953Z,13.40
2022-08-21T02:46:56.667Z,13.40
2022-08-21T02:49:23.421Z,13.38
2022-08-21T02:51:49.983Z,13.40
2022-08-21T02:54:16.388Z,13.41
2022-08-21T02:56:42.949Z,13.41
2022-08-21T02:59:09.512Z,13.44
2022-08-21T03:01:36.640Z,13.45
2022-08-21T03:04:03.328Z,13.41
2022-08-21T03:06:30.501Z,13.38
2022-08-21T03:08:58.644Z,13.29
2022-08-21T03:11:25.040Z,13.25
2022-08-21T03:13:51.497Z,13.23
2022-08-21T03:16:19.676Z,13.23
2022-08-21T03:18:46.258Z,13.19
2022-08-21T03:21:14.037Z,13.13
2022-08-21T03:23:40.897Z,13.09
2022-08-21T03:26:08.183Z,13.12
2022-08-21T03:28:35.733Z,13.11
2022-08-21T03:31:02.155Z,13.14
2022-08-21T03:33:28.920Z,13.15
2022-08-21T03:36:05.880Z,13.16
2022-08-21T03:38:34.132Z,13.18
2022-08-21T03:41:01.625Z,13.16
2022-08-21T03:43:30.840Z,13.15
2022-08-21T03:45:59.437Z,13.13
2022-08-21T03:48:25.992Z,13.14
2022-08-21T03:50:53.803Z,13.15
2022-08-21T03:53:20.207Z,13.16
2022-08-21T03:55:49.019Z,13.17
2022-08-21T03:58:21.083Z,13.16
2022-08-21T04:00:52.385Z,13.13
2022-08-21T04:03:19.308Z,13.10
2022-08-21T04:05:46.736Z,13.02
2022-08-21T04:08:14.500Z,12.97
2022-08-21T04:10:45.441Z,12.95
2022-08-21T04:13:12.332Z,12.93
2022-08-21T04:15:39.500Z,12.92
2022-08-21T04:18:06.736Z,12.92
2022-08-21T04:20:34.300Z,12.92
2022-08-21T04:23:01.333Z,12.87
2022-08-21T04:25:28.349Z,12.81
2022-08-21T04:27:55.028Z,12.75
2022-08-21T04:30:27.994Z,12.72
2022-08-21T04:32:56.706Z,12.68
2022-08-21T04:35:24.735Z,12.68
2022-08-21T04:37:51.315Z,12.70
2022-08-21T04:40:20.449Z,12.71
2022-08-21T04:42:50.710Z,12.70
2022-08-21T04:45:28.932Z,12.65
2022-08-21T04:47:59.525Z,12.57
2022-08-21T04:50:32.599Z,12.56
2022-08-21T04:52:59.651Z,12.58
2022-08-21T04:55:28.806Z,12.60
2022-08-21T04:57:57.523Z,12.65
2022-08-21T05:00:33.521Z,12.71
2022-08-21T05:03:01.969Z,12.70
2022-08-21T05:05:34.008Z,12.77
2022-08-21T05:08:03.430Z,12.81
2022-08-21T05:10:32.520Z,12.85
2022-08-21T05:13:01.060Z,12.84
2022-08-21T05:15:27.803Z,12.82
2022-08-21T05:18:00.958Z,12.88
2022-08-21T05:20:28.652Z,12.89
2022-08-21T05:22:55.227Z,12.92
2022-08-21T05:25:22.244Z,12.96
2022-08-21T05:27:50.200Z,13.02
2022-08-21T05:30:20.049Z,13.08
2022-08-21T05:32:48.284Z,13.13
2022-08-21T05:35:14.954Z,13.19
2022-08-21T05:37:41.365Z,13.39
2022-08-21T05:40:21.439Z,14.90
2022-08-21T05:42:54.888Z,16.86
2022-08-21T05:45:41.223Z,17.23
2022-08-21T05:48:11.296Z,16.72
2022-08-21T05:50:39.035Z,16.26
2022-08-21T05:53:07.460Z,16.33
2022-08-21T05:55:34.423Z,16.04
2022-08-21T05:58:00.995Z,15.64
2022-08-21T06:00:27.723Z,15.40
2022-08-21T06:02:54.198Z,15.61
2022-08-21T06:05:24.979Z,16.41
2022-08-21T06:08:03.805Z,17.48
2022-08-21T06:10:30.189Z,19.30
2022-08-21T06:12:56.730Z,18.61
2022-08-21T06:15:23.179Z,19.83
2022-08-21T06:17:49.575Z,21.72
2022-08-21T06:20:16.018Z,23.00
2022-08-21T06:22:42.436Z,24.51
2022-08-21T06:25:10.232Z,25.96
2022-08-21T06:27:37.060Z,27.22
2022-08-21T06:30:06.505Z,28.22
2022-08-21T06:32:33.263Z,28.22
2022-08-21T06:34:59.964Z,27.79
2022-08-21T06:37:26.420Z,26.96
2022-08-21T06:39:53.138Z,26.16
2022-08-21T06:42:19.604Z,23.77
2022-08-21T06:44:48.879Z,21.87
2022-08-21T06:47:15.441Z,20.85
2022-08-21T06:49:42.348Z,20.13
2022-08-21T06:52:14.067Z,19.62
2022-08-21T06:54:41.513Z,19.36
2022-08-21T06:57:08.328Z,19.09
2022-08-21T06:59:35.087Z,18.80
2022-08-21T07:02:01.901Z,18.61
2022-08-21T07:04:28.464Z,18.53
2022-08-21T07:06:54.938Z,18.41
2022-08-21T07:09:24.500Z,18.34
2022-08-21T07:11:54.335Z,18.25
2022-08-21T07:14:20.842Z,18.28
2022-08-21T07:16:48.243Z,18.32
2022-08-21T07:19:14.783Z,18.37
2022-08-21T07:21:41.577Z,18.47
2022-08-21T07:24:08.058Z,18.65
2022-08-21T07:26:34.518Z,19.42
2022-08-21T07:29:01.078Z,22.98
2022-08-21T07:31:27.759Z,25.73
2022-08-21T07:33:54.790Z,27.48
2022-08-21T07:36:21.774Z,28.60
2022-08-21T07:38:48.721Z,28.98
2022-08-21T07:41:22.596Z,29.76
2022-08-21T07:43:49.443Z,29.90
2022-08-21T07:46:20.555Z,30.00
2022-08-21T07:48:47.477Z,30.39
2022-08-21T07:51:24.916Z,30.82
2022-08-21T07:53:53.706Z,31.14
2022-08-21T07:56:31.947Z,30.75
2022-08-21T07:58:58.789Z,30.24
2022-08-21T08:01:28.090Z,29.73
2022-08-21T08:03:54.634Z,29.74
2022-08-21T08:06:21.177Z,29.76
2022-08-21T08:08:48.146Z,29.85
2022-08-21T08:11:16.414Z,30.12
2022-08-21T08:13:46.745Z,30.22
2022-08-21T08:16:14.045Z,30.37
2022-08-21T08:18:42.712Z,30.68
2022-08-21T08:21:10.258Z,30.99
2022-08-21T08:23:36.761Z,30.85
2022-08-21T08:26:03.721Z,30.61
2022-08-21T08:28:32.563Z,30.35
2022-08-21T08:31:00.614Z,30.61
2022-08-21T08:33:27.669Z,30.64
2022-08-21T08:35:55.941Z,30.69
2022-08-21T08:38:25.098Z,30.88
2022-08-21T08:41:23.646Z,30.84
2022-08-21T08:43:56.993Z,30.82
2022-08-21T08:46:35.830Z,30.49
2022-08-21T08:49:16.395Z,30.52
2022-08-21T08:51:58.542Z,30.29
2022-08-21T08:54:46.525Z,29.71
2022-08-21T08:57:19.248Z,28.68
2022-08-21T08:59:49.503Z,28.16
2022-08-21T09:02:17.812Z,28.24
2022-08-21T09:04:48.308Z,27.75
2022-08-21T09:07:33.324Z,27.79
2022-08-21T09:09:59.657Z,27.58
2022-08-21T09:12:59.409Z,27.33
2022-08-21T09:15:54.662Z,27.67
2022-08-21T09:18:37.480Z,28.02
2022-08-21T09:21:18.741Z,27.82
2022-08-21T09:24:11.718Z,28.08
2022-08-21T09:26:57.840Z,28.37
2022-08-21T09:29:31.324Z,28.45
2022-08-21T09:31:57.997Z,28.41
2022-08-21T09:34:29.869Z,28.82
2022-08-21T09:36:57.516Z,29.41
2022-08-21T09:39:39.827Z,29.42
2022-08-21T09:42:10.350Z,28.67
2022-08-21T09:44:41.847Z,28.10
2022-08-21T09:47:09.452Z,27.49
2022-08-21T09:49:42.567Z,27.42
2022-08-21T09:52:20.248Z,28.01
2022-08-21T09:54:50.860Z,27.88
2022-08-21T09:57:46.725Z,27.31
2022-08-21T10:00:21.078Z,26.54
2022-08-21T10:02:47.647Z,26.36
2022-08-21T10:05:25.659Z,26.18
2022-08-21T10:07:52.655Z,26.03
2022-08-21T10:10:23.459Z,25.86
2022-08-21T10:13:05.090Z,25.77
2022-08-21T10:16:02.619Z,26.45
2022-08-21T10:18:43.697Z,26.55
2022-08-21T10:21:16.024Z,26.04
2022-08-21T10:24:30.588Z,26.11
2022-08-21T10:27:16.685Z,26.94
2022-08-21T10:30:02.163Z,27.25
2022-08-21T10:32:35.827Z,27.15
2022-08-21T10:35:38.792Z,27.37
2022-08-21T10:38:52.630Z,27.39
2022-08-21T10:41:43.997Z,27.70
2022-08-21T10:44:25.081Z,28.17
2022-08-21T10:47:18.973Z,28.19
2022-08-21T10:50:07.098Z,27.71
2022-08-21T10:52:55.422Z,27.14
2022-08-21T10:55:26.648Z,27.33
2022-08-21T10:58:05.210Z,27.86
2022-08-21T11:00:54.605Z,28.12
2022-08-21T11:03:33.064Z,28.37
2022-08-21T11:06:06.824Z,28.38
2022-08-21T11:08:43.221Z,28.61
2022-08-21T11:11:19.943Z,28.65
2022-08-21T11:14:14.986Z,28.21
2022-08-21T11:16:46.745Z,28.21
2022-08-21T11:19:57.814Z,27.82
2022-08-21T11:22:27.860Z,27.30
2022-08-21T11:25:00.204Z,27.51
2022-08-21T11:27:51.317Z,28.12
2022-08-21T11:30:17.821Z,28.68
2022-08-21T11:33:15.582Z,28.84
2022-08-21T11:35:55.969Z,28.35
2022-08-21T11:38:36.188Z,28.15
2022-08-21T11:41:08.553Z,28.43
2022-08-21T11:43:45.791Z,28.59
2022-08-21T11:46:33.887Z,28.45
2022-08-21T11:49:00.347Z,28.35
2022-08-21T11:51:45.649Z,28.21
2022-08-21T11:54:31.124Z,27.92
2022-08-21T11:57:21.247Z,28.14
2022-08-21T11:59:57.581Z,27.99
2022-08-21T12:02:29.338Z,27.81
2022-08-21T12:05:00.218Z,27.47
2022-08-21T12:07:37.073Z,27.43
2022-08-21T12:10:09.703Z,27.18
2022-08-21T12:12:39.995Z,27.19
2022-08-21T12:15:15.302Z,27.13
2022-08-21T12:17:57.368Z,26.96
2022-08-21T12:20:50.650Z,26.95
2022-08-21T12:23:30.165Z,26.82
2022-08-21T12:26:01.736Z,26.51
2022-08-21T12:28:31.161Z,26.34
2022-08-21T12:30:58.321Z,26.54
2022-08-21T12:33:28.695Z,26.75
2022-08-21T12:36:06.335Z,26.69
2022-08-21T12:38:51.488Z,26.63
2022-08-21T12:41:25.484Z,26.25
2022-08-21T12:43:58.205Z,26.19
2022-08-21T12:46:37.789Z,26.29
2022-08-21T12:49:19.950Z,26.63
2022-08-21T12:52:02.168Z,27.17
2022-08-21T12:54:43.141Z,27.37
2022-08-21T12:57:18.005Z,26.83
2022-08-21T12:59:44.684Z,26.66
2022-08-21T13:02:19.714Z,26.37
2022-08-21T13:04:48.360Z,26.33
2022-08-21T13:07:23.328Z,25.89
2022-08-21T13:10:02.724Z,25.75
2022-08-21T13:12:32.453Z,25.87
2022-08-21T13:15:04.171Z,25.85
2022-08-21T13:17:38.710Z,25.74
2022-08-21T13:20:23.023Z,26.00
2022-08-21T13:22:49.521Z,26.03
2022-08-21T13:25:19.259Z,26.08
2022-08-21T13:27:59.487Z,26.17
2022-08-21T13:30:26.016Z,26.22
2022-08-21T13:32:58.285Z,26.10
2022-08-21T13:35:31.080Z,25.95
2022-08-21T13:37:59.709Z,25.90
2022-08-21T13:40:33.785Z,25.81
2022-08-21T13:43:01.242Z,25.81
2022-08-21T13:45:32.691Z,25.81
2022-08-21T13:48:03.201Z,25.85
2022-08-21T13:50:39.154Z,25.83
2022-08-21T13:53:08.315Z,25.62
2022-08-21T13:55:48.813Z,25.43
2022-08-21T13:58:28.938Z,25.45
2022-08-21T14:00:57.312Z,25.43
2022-08-21T14:03:35.255Z,25.39
2022-08-21T14:06:02.040Z,25.37
2022-08-21T14:08:36.572Z,25.43
2022-08-21T14:11:05.975Z,25.54
2022-08-21T14:13:42.676Z,25.53
2022-08-21T14:16:24.148Z,25.50
2022-08-21T14:18:52.747Z,25.46
2022-08-21T14:21:45.529Z,25.55
2022-08-21T14:24:15.448Z,25.52
2022-08-21T14:27:07.770Z,25.37
2022-08-21T14:29:38.424Z,25.29
2022-08-21T14:32:24.377Z,25.36
2022-08-21T14:34:51.939Z,25.34
2022-08-21T14:37:18.852Z,25.28
2022-08-21T14:39:45.810Z,25.19
2022-08-21T14:42:13.902Z,25.12
2022-08-21T14:44:40.408Z,25.12
2022-08-21T14:47:06.920Z,25.03
2022-08-21T14:49:33.474Z,24.94
2022-08-21T14:52:00.024Z,24.98
2022-08-21T14:54:31.892Z,24.91
2022-08-21T14:57:02.391Z,24.83
2022-08-21T14:59:29.035Z,24.80
2022-08-21T15:01:57.295Z,24.82
2022-08-21T15:04:23.826Z,24.83
2022-08-21T15:06:50.202Z,24.81
2022-08-21T15:09:16.931Z,24.77
2022-08-21T15:11:43.663Z,24.80
2022-08-21T15:14:18.504Z,24.75
2022-08-21T15:16:44.978Z,24.74
2022-08-21T15:19:11.460Z,24.74
2022-08-21T15:21:38.160Z,24.81
2022-08-21T15:24:04.927Z,24.84
2022-08-21T15:26:31.538Z,24.74
2022-08-21T15:28:59.863Z,24.65
2022-08-21T15:31:27.373Z,24.66
2022-08-21T15:33:54.157Z,24.66
2022-08-21T15:36:20.765Z,24.63
2022-08-21T15:38:47.413Z,24.53
2022-08-21T15:41:15.183Z,24.54
2022-08-21T15:43:52.309Z,24.43
2022-08-21T15:46:20.727Z,24.40
2022-08-21T15:48:47.641Z,24.41
2022-08-21T15:51:15.584Z,24.46
2022-08-21T15:53:42.943Z,24.43
2022-08-21T15:56:23.593Z,24.38
2022-08-21T15:58:58.428Z,24.32
2022-08-21T16:01:25.190Z,24.33
2022-08-21T16:03:54.319Z,24.32
2022-08-21T16:06:38.262Z,24.33
2022-08-21T16:09:07.576Z,24.38
2022-08-21T16:11:34.013Z,24.52
2022-08-21T16:14:00.892Z,24.55
2022-08-21T16:16:29.461Z,24.57
2022-08-21T16:18:58.133Z,24.52
2022-08-21T16:21:24.507Z,24.44
2022-08-21T16:23:50.955Z,24.41
2022-08-21T16:26:18.713Z,24.34
2022-08-21T16:28:46.915Z,24.39
2022-08-21T16:31:15.385Z,24.37
2022-08-21T16:33:46.408Z,24.24
2022-08-21T16:36:13.490Z,24.25
2022-08-21T16:38:49.323Z,24.31
2022-08-21T16:41:21.885Z,24.26
2022-08-21T16:43:51.058Z,24.26
2022-08-21T16:46:18.636Z,24.14
2022-08-21T16:48:45.324Z,24.03
2022-08-21T16:51:13.768Z,24.05
2022-08-21T16:53:41.062Z,24.05
2022-08-21T16:56:08.947Z,24.01
2022-08-21T16:58:38.948Z,24.01
2022-08-21T17:01:10.486Z,23.98
2022-08-21T17:03:40.118Z,23.96
2022-08-21T17:06:08.876Z,23.93
2022-08-21T17:08:35.823Z,23.86
2022-08-21T17:11:03.354Z,23.81
2022-08-21T17:13:30.681Z,23.75
2022-08-21T17:15:57.492Z,23.67
2022-08-21T17:18:25.429Z,23.61
2022-08-21T17:20:52.624Z,23.54
2022-08-21T17:23:19.684Z,23.44
2022-08-21T17:25:49.617Z,23.41
2022-08-21T17:28:20.695Z,23.35
2022-08-21T17:30:47.279Z,23.25
2022-08-21T17:33:15.372Z,23.14
2022-08-21T17:35:42.533Z,23.04
2022-08-21T17:38:10.376Z,22.99
2022-08-21T17:40:42.671Z,22.88
2022-08-21T17:43:11.665Z,22.79
2022-08-21T17:45:39.937Z,22.71
2022-08-21T17:48:06.502Z,22.68
2022-08-21T17:50:33.129Z,22.65
2022-08-21T17:52:59.894Z,22.59
2022-08-21T17:55:34.405Z,22.54
2022-08-21T17:58:02.411Z,22.49
2022-08-21T18:00:30.159Z,22.38
2022-08-21T18:03:04.483Z,22.28
2022-08-21T18:05:30.989Z,22.22
2022-08-21T18:07:57.842Z,22.15
2022-08-21T18:10:25.356Z,22.06
2022-08-21T18:12:52.419Z,22.02
2022-08-21T18:15:20.222Z,21.96
2022-08-21T18:17:49.984Z,21.88
2022-08-21T18:20:18.842Z,21.85
2022-08-21T18:22:46.032Z,21.84
2022-08-21T18:25:12.988Z,21.77
2022-08-21T18:27:42.675Z,21.74
2022-08-21T18:30:10.426Z,21.69
2022-08-21T18:32:37.263Z,21.66
2022-08-21T18:35:05.255Z,21.58
2022-08-21T18:37:32.004Z,21.52
2022-08-21T18:39:58.879Z,21.50
2022-08-21T18:42:28.960Z,21.42
2022-08-21T18:45:00.858Z,21.33
2022-08-21T18:47:33.662Z,21.24
2022-08-21T18:50:00.314Z,21.14
2022-08-21T18:52:28.291Z,21.09
2022-08-21T18:54:55.414Z,21.05
2022-08-21T18:57:24.060Z,21.00
2022-08-21T18:59:50.444Z,20.92
2022-08-21T19:02:16.878Z,20.82
2022-08-21T19:04:44.961Z,20.73
2022-08-21T19:07:13.961Z,20.63
2022-08-21T19:09:42.149Z,20.53
2022-08-21T19:12:14.878Z,20.45
2022-08-21T19:14:41.482Z,20.40
2022-08-21T19:17:08.459Z,20.36
2022-08-21T19:19:36.339Z,20.31
2022-08-21T19:22:10.852Z,20.26
2022-08-21T19:24:38.775Z,20.21
2022-08-21T19:27:05.381Z,20.15
2022-08-21T19:29:34.899Z,20.07
2022-08-21T19:32:05.346Z,19.97
2022-08-21T19:34:34.735Z,19.89
2022-08-21T19:37:02.011Z,19.88
2022-08-21T19:39:28.592Z,19.84
2022-08-21T19:41:57.980Z,19.82
2022-08-21T19:44:28.408Z,19.74
2022-08-21T19:46:57.841Z,19.51
2022-08-21T19:49:28.685Z,19.48
2022-08-21T19:51:55.480Z,19.46
2022-08-21T19:54:25.674Z,19.45
2022-08-21T19:56:57.347Z,19.43
2022-08-21T19:59:25.613Z,19.42
2022-08-21T20:01:52.730Z,19.33
2022-08-21T20:04:19.676Z,19.24
2022-08-21T20:06:47.296Z,19.25
2022-08-21T20:09:14.800Z,19.21
2022-08-21T20:11:51.839Z,19.18
2022-08-21T20:14:23.703Z,19.07
2022-08-21T20:16:52.591Z,19.02
2022-08-21T20:19:20.242Z,19.03
2022-08-21T20:21:46.902Z,18.97
2022-08-21T20:24:14.768Z,18.95
2022-08-21T20:26:49.431Z,18.90
2022-08-21T20:29:17.592Z,18.74
2022-08-21T20:31:51.241Z,18.67
2022-08-21T20:34:17.696Z,18.62
2022-08-21T20:36:45.087Z,18.62
2022-08-21T20:39:14.516Z,18.66
2022-08-21T20:41:41.463Z,18.65
2022-08-21T20:44:12.667Z,18.62
2022-08-21T20:46:39.921Z,18.60
2022-08-21T20:49:09.222Z,18.56
2022-08-21T20:51:40.979Z,18.56
2022-08-21T20:54:27.177Z,18.56
2022-08-21T20:57:05.816Z,18.51
2022-08-21T20:59:46.927Z,18.47
2022-08-21T21:02:16.290Z,18.37
2022-08-21T21:04:53.387Z,18.33
2022-08-21T21:07:27.988Z,18.30
2022-08-21T21:09:57.197Z,18.26
2022-08-21T21:12:30.197Z,18.23
2022-08-21T21:15:00.729Z,18.21
2022-08-21T21:17:42.765Z,18.17
2022-08-21T21:20:34.581Z,18.15
2022-08-21T21:23:14.728Z,18.13
2022-08-21T21:25:50.538Z,18.16
2022-08-21T21:28:29.150Z,18.14
2022-08-21T21:30:57.537Z,18.10
2022-08-21T21:33:25.072Z,18.10
2022-08-21T21:35:58.328Z,18.14
2022-08-21T21:41:44.749Z,18.07
2022-08-21T21:44:33.887Z,18.07
2022-08-21T21:47:03.361Z,18.06
2022-08-21T21:49:40.091Z,18.07
2022-08-21T21:52:10.359Z,18.04
2022-08-21T21:55:23.750Z,17.99
2022-08-21T21:58:19.867Z,17.94
2022-08-21T22:01:00.295Z,17.92
2022-08-21T22:03:48.578Z,17.91
2022-08-21T22:06:29.944Z,17.93
2022-08-21T22:08:57.557Z,17.95
2022-08-21T22:11:55.462Z,17.90
2022-08-21T22:14:29.318Z,17.88
2022-08-21T22:16:56.101Z,17.90
2022-08-21T22:19:24.628Z,17.90
2022-08-21T22:22:01.673Z,17.87
2022-08-21T22:24:40.214Z,17.81
2022-08-21T22:27:10.916Z,17.74
2022-08-21T22:29:50.783Z,17.72
2022-08-21T22:32:28.092Z,17.73
2022-08-21T22:35:24.584Z,17.69
2022-08-21T22:37:55.289Z,17.70
2022-08-21T22:40:31.709Z,17.74
2022-08-21T22:43:22.412Z,17.73
2022-08-21T22:45:48.919Z,17.72
2022-08-21T22:48:22.503Z,17.74
2022-08-21T22:51:07.334Z,17.74
2022-08-21T22:53:39.742Z,17.72
2022-08-21T22:56:07.863Z,17.70
2022-08-21T22:58:52.304Z,17.73
2022-08-21T23:01:21.436Z,17.75
2022-08-21T23:03:51.745Z,17.74
2022-08-21T23:06:22.864Z,17.72
2022-08-21T23:08:49.787Z,17.73
2022-08-21T23:11:24.935Z,17.70
2022-08-21T23:13:55.531Z,17.67
2022-08-21T23:16:47.285Z,17.61
2022-08-21T23:19:40.630Z,17.61
2022-08-21T23:22:34.603Z,17.65
2022-08-21T23:25:17.178Z,17.64
2022-08-21T23:27:43.991Z,17.66
2022-08-21T23:30:19.015Z,17.63
2022-08-21T23:33:21.684Z,17.62
2022-08-21T23:36:31.001Z,17.63
2022-08-21T23:39:12.359Z,17.66
2022-08-21T23:41:44.594Z,17.64
2022-08-21T23:44:25.060Z,17.62
2022-08-21T23:47:00.451Z,17.60
2022-08-21T23:49:44.179Z,17.59
2022-08-21T23:52:16.847Z,17.60
2022-08-21T23:54:50.760Z,17.58
